Time;durP1;ratioP1;P1;durP2;ratioP2;P2;SDS_P1;SDS_P2;PMS_P1;PMS_P2;Temp;Humidity;BMP_temperature;BMP_pressure;BME280_temperature;BME280_humidity;BME280_pressure;Samples;Min_cycle;Max_cycle;Signal;HPM_P1;HPM_P2
2022/08/22 00:00:17;;;;;;;;;;;;;;;18.84;38.84;99898.84;5093445;28;19978;-86
2022/08/22 00:02:44;;;;;;;;;;;;;;;18.84;38.94;99893.41;5093444;28;19928;-86
2022/08/22 00:05:53;;;;;;;;;;;;;;;18.82;39.02;99904.59;5093874;28;20469;-86
2022/08/22 00:08:32;;;;;;;;;;;;;;;18.80;39.03;99898.56;5116594;28;19939;-86
2022/08/22 00:11:13;;;;;;;;;;;;;;;18.77;39.32;99901.88;5093384;28;19927;-87
2022/08/22 00:13:56;;;;;;;;;;;;;;;18.80;39.20;99900.50;5080209;28;19931;-85
2022/08/22 00:16:33;;;;;;;;;;;;;;;18.78;39.25;99891.75;5093621;28;20383;-86
2022/08/22 00:19:06;;;;;;;;;;;;;;;18.77;39.03;99893.66;5093496;28;19932;-86
2022/08/22 00:21:46;;;;;;;;;;;;;;;18.75;39.35;99895.84;5092799;28;19934;-86
2022/08/22 00:24:19;;;;;;;;;;;;;;;18.75;39.49;99898.59;5076573;28;20359;-86
2022/08/22 00:26:52;;;;;;;;;;;;;;;18.75;39.55;99901.31;5112981;28;19927;-86
2022/08/22 00:29:26;;;;;;;;;;;;;;;18.71;39.65;99896.66;5114534;28;19928;-86
2022/08/22 00:32:14;;;;;;;;;;;;;;;18.70;39.67;99898.56;5096809;28;19928;-86
2022/08/22 00:34:49;;;;;;;;;;;;;;;18.72;39.75;99893.66;5114274;28;19945;-85
2022/08/22 00:37:25;;;;;;;;;;;;;;;18.70;39.95;99911.44;5096771;28;20503;-86
2022/08/22 00:40:07;;;;;;;;;;;;;;;18.70;39.92;99903.22;5114229;28;19927;-85
2022/08/22 00:42:53;;;;;;;;;;;;;;;18.67;40.04;99912.00;5096460;28;19927;-85
2022/08/22 00:45:29;;;;;;;;;;;;;;;18.66;40.01;99918.53;5114508;28;19928;-85
2022/08/22 00:48:02;;;;;;;;;;;;;;;18.65;39.96;99914.97;5115017;28;19976;-86
2022/08/22 00:50:48;;;;;;;;;;;;;;;18.62;40.25;99916.34;5114110;28;19935;-88
2022/08/22 00:53:30;;;;;;;;;;;;;;;18.59;40.33;99925.13;5114236;28;19927;-85
2022/08/22 00:56:16;;;;;;;;;;;;;;;18.57;40.40;99934.69;5114163;28;19935;-86
2022/08/22 00:59:02;;;;;;;;;;;;;;;18.52;40.84;99935.50;5095715;28;20340;-85
2022/08/22 01:02:08;;;;;;;;;;;;;;;18.49;40.93;99932.50;5099081;28;19973;-86
2022/08/22 01:04:53;;;;;;;;;;;;;;;18.46;41.78;99928.41;5079104;28;19927;-86
2022/08/22 01:07:23;;;;;;;;;;;;;;;18.41;42.03;99942.88;5113889;28;19928;-85
2022/08/22 01:10:22;;;;;;;;;;;;;;;18.40;42.52;99932.22;5113787;28;19927;-85
2022/08/22 01:13:00;;;;;;;;;;;;;;;18.37;42.33;99930.03;5113801;28;20297;-86
2022/08/22 01:15:29;;;;;;;;;;;;;;;18.33;42.30;99950.78;5113524;28;20457;-87
2022/08/22 01:18:08;;;;;;;;;;;;;;;18.27;43.38;99927.31;5113636;28;19978;-86
2022/08/22 01:20:54;;;;;;;;;;;;;;;18.21;43.30;99931.16;5095651;28;19970;-86
2022/08/22 01:23:36;;;;;;;;;;;;;;;18.20;43.24;99927.56;5095378;28;19981;-87
2022/08/22 01:26:21;;;;;;;;;;;;;;;18.16;43.33;99934.69;5113578;28;19927;-86
2022/08/22 01:29:20;;;;;;;;;;;;;;;18.15;43.28;99922.09;5113411;28;19931;-86
2022/08/22 01:32:06;;;;;;;;;;;;;;;18.12;43.74;99914.47;5103120;28;19935;-85
2022/08/22 01:34:39;;;;;;;;;;;;;;;18.06;44.23;99905.44;5113773;28;20034;-87
2022/08/22 01:37:32;;;;;;;;;;;;;;;18.01;44.05;99910.91;5113291;28;20398;-87
2022/08/22 01:40:04;;;;;;;;;;;;;;;17.99;44.36;99902.16;5095044;28;19931;-84
2022/08/22 01:42:34;;;;;;;;;;;;;;;18.00;44.33;99903.78;5112873;28;19927;-86
2022/08/22 01:45:03;;;;;;;;;;;;;;;18.02;44.40;99901.63;5113181;28;19932;-85
2022/08/22 01:47:33;;;;;;;;;;;;;;;18.02;44.50;99887.16;5115139;28;19972;-86
2022/08/22 01:50:21;;;;;;;;;;;;;;;18.03;44.15;99883.31;5122765;28;19934;-86
2022/08/22 01:53:01;;;;;;;;;;;;;;;18.01;44.30;99872.69;5078697;28;19928;-86
2022/08/22 01:55:28;;;;;;;;;;;;;;;17.98;44.56;99878.69;5113122;28;20339;-86
2022/08/22 01:57:56;;;;;;;;;;;;;;;17.93;44.75;99881.41;5095043;28;19941;-87
2022/08/22 02:00:29;;;;;;;;;;;;;;;17.85;44.82;99877.31;5095546;28;20159;-87
2022/08/22 02:03:02;;;;;;;;;;;;;;;17.85;44.95;99911.97;5078818;28;20197;-86
2022/08/22 02:05:36;;;;;;;;;;;;;;;17.84;45.05;99899.41;5112544;28;20014;-87
2022/08/22 02:08:21;;;;;;;;;;;;;;;17.87;44.80;99885.22;5078554;28;19935;-86
2022/08/22 02:11:01;;;;;;;;;;;;;;;17.85;44.89;99882.78;5094848;28;20003;-85
2022/08/22 02:13:27;;;;;;;;;;;;;;;17.80;45.04;99882.75;5112430;28;19977;-86
2022/08/22 02:16:25;;;;;;;;;;;;;;;17.75;45.14;99875.34;5083503;28;19927;-86
2022/08/22 02:18:59;;;;;;;;;;;;;;;17.71;45.47;99885.16;5094517;28;20363;-85
2022/08/22 02:21:45;;;;;;;;;;;;;;;17.67;45.60;99889.53;5093988;28;19934;-86
2022/08/22 02:24:15;;;;;;;;;;;;;;;17.64;45.75;99890.06;5094011;28;19934;-86
2022/08/22 02:27:03;;;;;;;;;;;;;;;17.60;45.87;99893.59;5112061;28;20014;-86
2022/08/22 02:29:30;;;;;;;;;;;;;;;17.55;46.04;99895.22;5077101;28;20369;-87
2022/08/22 02:32:00;;;;;;;;;;;;;;;17.57;46.02;99905.84;5093930;28;20014;-86
2022/08/22 02:34:39;;;;;;;;;;;;;;;17.57;45.94;99902.31;5094120;28;19927;-86
2022/08/22 02:37:15;;;;;;;;;;;;;;;17.56;45.91;99906.97;5112454;28;19927;-87
2022/08/22 02:39:42;;;;;;;;;;;;;;;17.55;46.08;99908.88;5094179;28;19950;-87
2022/08/22 02:42:15;;;;;;;;;;;;;;;17.57;46.10;99911.31;5112059;28;19982;-86
2022/08/22 02:44:47;;;;;;;;;;;;;;;17.58;45.85;99904.78;5111541;28;20018;-86
2022/08/22 02:47:15;;;;;;;;;;;;;;;17.60;45.70;99905.34;5112532;28;19928;-87
2022/08/22 02:49:46;;;;;;;;;;;;;;;17.61;45.73;99904.25;5076821;28;19962;-87
2022/08/22 02:52:32;;;;;;;;;;;;;;;17.64;45.83;99906.44;5097177;28;19927;-88
2022/08/22 02:55:05;;;;;;;;;;;;;;;17.68;45.86;99901.28;5100127;28;19932;-85
2022/08/22 02:57:33;;;;;;;;;;;;;;;17.70;45.75;99910.81;5093785;28;19928;-86
2022/08/22 03:00:37;;;;;;;;;;;;;;;17.73;45.60;99906.75;5077732;28;20375;-87
2022/08/22 03:03:05;;;;;;;;;;;;;;;17.77;45.58;99914.13;5048616;28;19963;-88
2022/08/22 03:05:35;;;;;;;;;;;;;;;17.79;45.94;99913.03;5032248;28;19929;-87
2022/08/22 03:08:04;;;;;;;;;;;;;;;17.80;45.87;99915.53;5048577;28;20027;-86
2022/08/22 03:10:43;;;;;;;;;;;;;;;17.82;45.70;99920.69;5015720;28;20146;-86
2022/08/22 03:13:15;;;;;;;;;;;;;;;17.83;45.67;99920.44;5032309;28;19963;-88
2022/08/22 03:15:45;;;;;;;;;;;;;;;17.84;45.65;99919.34;5048397;28;19929;-87
2022/08/22 03:18:30;;;;;;;;;;;;;;;17.85;45.72;99929.19;5048884;28;19935;-88
2022/08/22 03:20:59;;;;;;;;;;;;;;;17.87;45.82;99923.44;5031011;28;19929;-87
2022/08/22 03:23:38;;;;;;;;;;;;;;;17.88;45.89;99930.56;5020926;28;19936;-88
2022/08/22 03:26:27;;;;;;;;;;;;;;;17.89;45.83;99921.25;5039431;28;19936;-86
2022/08/22 03:29:29;;;;;;;;;;;;;;;17.91;45.81;99922.63;4977907;28;19969;-88
2022/08/22 03:32:22;;;;;;;;;;;;;;;17.95;45.79;99928.38;4959198;28;20349;-88
2022/08/22 03:34:57;;;;;;;;;;;;;;;18.00;45.65;99936.56;4956551;28;19954;-86
2022/08/22 03:37:39;;;;;;;;;;;;;;;18.04;45.59;99923.19;4940041;28;19930;-89
2022/08/22 03:40:18;;;;;;;;;;;;;;;18.04;45.59;99926.75;4998086;28;20072;-88
2022/08/22 03:42:51;;;;;;;;;;;;;;;18.07;45.68;99919.91;4999238;28;19929;-88
2022/08/22 03:45:37;;;;;;;;;;;;;;;18.09;45.73;99923.22;5007679;28;19933;-87
2022/08/22 03:48:16;;;;;;;;;;;;;;;18.14;45.63;99921.28;5006948;28;20028;-88
2022/08/22 03:51:02;;;;;;;;;;;;;;;18.18;45.49;99922.41;4987322;28;19929;-90
2022/08/22 03:53:32;;;;;;;;;;;;;;;18.22;45.36;99913.66;5003934;28;20395;-89
2022/08/22 03:56:08;;;;;;;;;;;;;;;18.25;45.43;99924.84;4983057;28;19963;-87
2022/08/22 03:58:44;;;;;;;;;;;;;;;18.26;45.43;99925.69;5002986;28;20032;-89
2022/08/22 04:01:34;;;;;;;;;;;;;;;18.25;45.52;99924.84;4994553;28;20417;-89
2022/08/22 04:04:04;;;;;;;;;;;;;;;18.26;45.46;99926.50;4993389;28;19934;-88
2022/08/22 04:06:37;;;;;;;;;;;;;;;18.27;45.66;99919.94;5059137;28;19977;-88
2022/08/22 04:09:10;;;;;;;;;;;;;;;18.28;45.68;99921.59;5102527;28;19935;-86
2022/08/22 04:11:56;;;;;;;;;;;;;;;18.28;45.66;99928.94;5096298;28;19927;-88
2022/08/22 04:14:42;;;;;;;;;;;;;;;18.31;45.62;99933.88;5061198;28;19932;-88
2022/08/22 04:17:09;;;;;;;;;;;;;;;18.27;45.66;99925.41;5082295;28;19928;-89
2022/08/22 04:19:52;;;;;;;;;;;;;;;18.26;45.67;99934.69;5101304;28;20018;-89
2022/08/22 04:22:24;;;;;;;;;;;;;;;18.28;46.02;99932.50;5109503;28;19935;-91
2022/08/22 04:24:54;;;;;;;;;;;;;;;18.26;46.37;99933.88;5100576;28;19934;-88
2022/08/22 04:27:39;;;;;;;;;;;;;;;18.23;46.41;99937.13;5090607;28;19957;-90
2022/08/22 04:30:12;;;;;;;;;;;;;;;18.23;46.48;99939.88;5088517;28;20045;-89
2022/08/22 04:32:58;;;;;;;;;;;;;;;18.27;46.34;99940.97;5067456;28;20413;-89
2022/08/22 04:35:30;;;;;;;;;;;;;;;18.29;46.37;99939.59;5109535;28;19928;-90
2022/08/22 04:38:00;;;;;;;;;;;;;;;18.33;46.33;99932.50;5090667;27;19927;-89
2022/08/22 04:40:27;;;;;;;;;;;;;;;18.37;46.21;99927.31;5107474;27;19955;-90
2022/08/22 04:42:58;;;;;;;;;;;;;;;18.41;46.15;99925.69;5078628;28;19993;-88
2022/08/22 04:45:28;;;;;;;;;;;;;;;18.45;46.25;99939.59;5087695;28;20333;-89
2022/08/22 04:48:00;;;;;;;;;;;;;;;18.47;46.25;99945.63;5094052;28;19928;-89
2022/08/22 04:50:56;;;;;;;;;;;;;;;18.50;46.46;99934.94;5078895;28;20512;-89
2022/08/22 04:53:26;;;;;;;;;;;;;;;18.54;46.89;99919.66;5043368;28;20406;-88
2022/08/22 04:55:52;;;;;;;;;;;;;;;18.62;47.33;99927.28;5040560;28;20488;-89
2022/08/22 04:58:22;;;;;;;;;;;;;;;18.72;47.21;99922.91;5047928;28;20438;-86
2022/08/22 05:00:55;;;;;;;;;;;;;;;18.81;46.91;99922.09;5041833;28;20035;-89
2022/08/22 05:03:23;;;;;;;;;;;;;;;18.94;46.88;99919.88;5038193;28;20027;-87
2022/08/22 05:05:50;;;;;;;;;;;;;;;19.05;46.50;99905.91;5022023;28;19929;-91
2022/08/22 05:08:20;;;;;;;;;;;;;;;19.16;46.01;99909.41;5019046;28;19928;-86
2022/08/22 05:10:47;;;;;;;;;;;;;;;19.34;45.65;99909.88;4996014;28;19929;-85
2022/08/22 05:13:28;;;;;;;;;;;;;;;19.58;45.16;99907.31;5026954;28;20451;-87
2022/08/22 05:15:57;;;;;;;;;;;;;;;19.74;45.03;99902.59;4995648;28;19929;-87
2022/08/22 05:18:28;;;;;;;;;;;;;;;19.80;44.78;99902.28;5016521;28;19929;-89
2022/08/22 05:20:56;;;;;;;;;;;;;;;19.86;44.68;99898.41;5020503;28;19929;-88
2022/08/22 05:23:26;;;;;;;;;;;;;;;19.99;44.27;99909.81;5040429;28;20040;-87
2022/08/22 05:25:54;;;;;;;;;;;;;;;20.07;43.85;99909.22;5031113;28;20426;-83
2022/08/22 05:28:48;;;;;;;;;;;;;;;20.20;43.54;99911.28;5032102;28;19939;-89
2022/08/22 05:31:22;;;;;;;;;;;;;;;20.29;42.97;99900.56;5088234;28;19941;-91
2022/08/22 05:33:50;;;;;;;;;;;;;;;20.37;42.79;99910.06;5104311;28;19981;-86
2022/08/22 05:36:37;;;;;;;;;;;;;;;20.41;42.65;99911.13;5035617;28;10000562;-86
2022/08/22 05:39:09;;;;;;;;;;;;;;;20.48;42.58;99923.38;5071104;28;20054;-86
2022/08/22 05:41:37;;;;;;;;;;;;;;;20.49;42.58;99936.00;5056555;28;19989;-86
2022/08/22 05:44:06;;;;;;;;;;;;;;;20.50;42.87;99929.41;5091947;28;19934;-85
2022/08/22 05:46:41;;;;;;;;;;;;;;;20.52;43.02;99923.66;5090078;28;19928;-85
2022/08/22 05:49:30;;;;;;;;;;;;;;;20.51;42.88;99917.34;5085751;28;19928;-91
2022/08/22 05:52:03;;;;;;;;;;;;;;;20.49;43.15;99929.72;5079133;28;20295;-88
2022/08/22 05:54:34;;;;;;;;;;;;;;;20.44;43.50;99921.53;5112818;28;19927;-85
2022/08/22 05:57:10;;;;;;;;;;;;;;;20.37;43.67;99919.13;5105448;28;20355;-86
2022/08/22 05:59:37;;;;;;;;;;;;;;;20.42;43.87;99923.75;5061474;28;19939;-87
2022/08/22 06:02:20;;;;;;;;;;;;;;;20.46;43.86;99916.56;5088872;28;19973;-86
2022/08/22 06:04:50;;;;;;;;;;;;;;;20.39;44.15;99925.13;5092170;28;19936;-88
2022/08/22 06:07:17;;;;;;;;;;;;;;;20.43;44.08;99928.91;5069628;28;19928;-88
2022/08/22 06:09:44;;;;;;;;;;;;;;;20.51;44.07;99920.09;5095614;28;20155;-87
2022/08/22 06:12:28;;;;;;;;;;;;;;;20.54;43.90;99925.03;5102438;28;19932;-90
2022/08/22 06:14:58;;;;;;;;;;;;;;;20.68;43.89;99936.13;5078707;28;19935;-87
2022/08/22 06:17:30;;;;;;;;;;;;;;;21.00;43.66;99929.25;5064699;28;19931;-89
2022/08/22 06:19:57;;;;;;;;;;;;;;;21.14;43.82;99924.69;5065552;28;19966;-88
2022/08/22 06:22:25;;;;;;;;;;;;;;;21.25;43.69;99930.06;5099713;28;19928;-90
2022/08/22 06:24:53;;;;;;;;;;;;;;;21.30;43.48;99935.50;5059768;28;19974;-90
2022/08/22 06:27:22;;;;;;;;;;;;;;;21.35;43.63;99946.41;5055985;28;20313;-89
2022/08/22 06:29:57;;;;;;;;;;;;;;;21.30;43.63;99938.22;5082639;28;19928;-87
2022/08/22 06:32:24;;;;;;;;;;;;;;;21.19;43.44;99932.03;5083921;28;19928;-87
2022/08/22 06:35:15;;;;;;;;;;;;;;;21.16;43.63;99936.16;5079245;28;20362;-87
2022/08/22 06:37:43;;;;;;;;;;;;;;;21.17;43.63;99943.31;5091101;28;19934;-91
2022/08/22 06:40:11;;;;;;;;;;;;;;;21.29;43.56;99931.09;5058565;28;20400;-92
2022/08/22 06:42:48;;;;;;;;;;;;;;;21.52;43.73;99934.94;5088029;28;19928;-94
2022/08/22 06:45:16;;;;;;;;;;;;;;;21.77;43.31;99944.78;5086368;28;20317;-90
2022/08/22 06:47:43;;;;;;;;;;;;;;;22.14;42.40;99948.66;5068723;28;19928;-86
2022/08/22 06:50:22;;;;;;;;;;;;;;;22.54;41.90;99949.97;5065080;28;20309;-90
2022/08/22 06:52:54;;;;;;;;;;;;;;;22.62;41.33;99948.44;5089376;28;19942;-90
2022/08/22 06:55:25;;;;;;;;;;;;;;;22.67;40.73;99948.34;5094608;28;20013;-86
2022/08/22 06:57:53;;;;;;;;;;;;;;;22.73;40.86;99941.63;5087458;28;19927;-88
2022/08/22 07:00:20;;;;;;;;;;;;;;;22.83;40.70;99946.13;5092315;28;19928;-89
2022/08/22 07:02:58;;;;;;;;;;;;;;;22.89;40.42;99942.19;5092851;28;20229;-88
2022/08/22 07:05:28;;;;;;;;;;;;;;;23.17;39.72;99929.28;5091689;28;20030;-86
2022/08/22 07:07:55;;;;;;;;;;;;;;;23.32;39.03;99937.25;5107136;28;19977;-84
2022/08/22 07:10:23;;;;;;;;;;;;;;;23.45;39.27;99940.28;5106327;28;20018;-86
2022/08/22 07:12:51;;;;;;;;;;;;;;;23.52;39.12;99940.66;5089250;28;20455;-85
2022/08/22 07:15:35;;;;;;;;;;;;;;;23.61;39.13;99949.03;5063149;28;19981;-88
2022/08/22 07:18:23;;;;;;;;;;;;;;;23.62;38.89;99936.88;5099842;28;19928;-87
2022/08/22 07:20:54;;;;;;;;;;;;;;;23.77;38.57;99939.34;5100455;28;19932;-86
2022/08/22 07:23:32;;;;;;;;;;;;;;;23.93;38.29;99940.63;5115859;28;20416;-86
2022/08/22 07:26:02;;;;;;;;;;;;;;;24.08;38.28;99944.13;5083927;28;19931;-87
2022/08/22 07:28:30;;;;;;;;;;;;;;;24.34;38.15;99945.19;5113851;28;19963;-87
2022/08/22 07:31:33;;;;;;;;;;;;;;;24.55;37.65;99941.94;5112053;28;19967;-86
2022/08/22 07:34:13;;;;;;;;;;;;;;;24.46;37.57;99955.69;5111414;28;19927;-87
2022/08/22 07:36:48;;;;;;;;;;;;;;;24.63;37.57;99950.25;5092737;28;19932;-87
2022/08/22 07:39:21;;;;;;;;;;;;;;;24.59;37.44;99948.47;5077104;28;19927;-87
2022/08/22 07:41:58;;;;;;;;;;;;;;;24.73;36.98;99953.88;5093769;28;19939;-87
2022/08/22 07:44:27;;;;;;;;;;;;;;;24.72;36.85;99953.09;5096510;28;19927;-87
2022/08/22 07:46:59;;;;;;;;;;;;;;;24.67;36.85;99944.13;5113617;28;20378;-87
2022/08/22 07:49:31;;;;;;;;;;;;;;;24.65;37.34;99948.00;5078831;28;20353;-86
2022/08/22 07:51:59;;;;;;;;;;;;;;;24.73;37.24;99951.94;5095415;28;20400;-88
2022/08/22 07:54:30;;;;;;;;;;;;;;;24.97;37.12;99943.31;5095182;28;19927;-87
2022/08/22 07:57:01;;;;;;;;;;;;;;;25.24;36.52;99947.00;5111894;28;19927;-87
2022/08/22 07:59:28;;;;;;;;;;;;;;;25.48;36.38;99946.59;5089857;28;20027;-87
2022/08/22 08:01:57;;;;;;;;;;;;;;;25.79;36.02;99942.91;5074204;28;20354;-87
2022/08/22 08:04:27;;;;;;;;;;;;;;;26.02;35.42;99938.06;5090114;28;20003;-89
2022/08/22 08:06:55;;;;;;;;;;;;;;;26.30;35.39;99944.88;5073354;28;19928;-87
2022/08/22 08:09:22;;;;;;;;;;;;;;;26.61;35.42;99943.91;5073286;28;19975;-87
2022/08/22 08:11:50;;;;;;;;;;;;;;;26.96;34.85;99949.34;5090980;28;19951;-86
2022/08/22 08:14:18;;;;;;;;;;;;;;;27.14;34.64;99947.31;5089566;28;19928;-88
2022/08/22 08:16:55;;;;;;;;;;;;;;;27.15;34.46;99949.75;5072939;28;20113;-87
2022/08/22 08:19:23;;;;;;;;;;;;;;;27.28;34.38;99944.34;5089713;28;19977;-87
2022/08/22 08:21:52;;;;;;;;;;;;;;;27.71;33.38;99940.53;5091061;28;19937;-87
2022/08/22 08:24:24;;;;;;;;;;;;;;;27.83;33.54;99941.44;5091025;28;20018;-87
2022/08/22 08:29:42;;;;;;;;;;;;;;;27.72;33.46;99939.34;5096751;28;20467;-88
2022/08/22 08:32:11;;;;;;;;;;;;;;;28.09;33.20;99948.75;5057619;28;19928;-88
2022/08/22 08:34:38;;;;;;;;;;;;;;;28.53;32.79;99946.41;5090403;28;19928;-87
2022/08/22 08:37:11;;;;;;;;;;;;;;;28.82;32.12;99948.22;5090879;28;20516;-87
2022/08/22 08:39:49;;;;;;;;;;;;;;;28.71;32.10;99947.03;5089287;28;19928;-87
2022/08/22 08:42:31;;;;;;;;;;;;;;;28.37;32.27;99950.94;5074421;28;20042;-87
2022/08/22 08:45:16;;;;;;;;;;;;;;;28.44;32.03;99949.28;5091961;28;20349;-88
2022/08/22 08:47:51;;;;;;;;;;;;;;;28.47;32.40;99951.34;5075368;28;19928;-87
2022/08/22 08:50:30;;;;;;;;;;;;;;;28.53;32.01;99947.19;5077325;28;20022;-88
2022/08/22 08:53:22;;;;;;;;;;;;;;;28.63;32.20;99945.16;5094449;28;19928;-85
2022/08/22 08:55:52;;;;;;;;;;;;;;;29.09;31.52;99945.97;5012862;28;20043;-85
2022/08/22 08:58:24;;;;;;;;;;;;;;;29.26;30.91;99950.50;5012460;28;19933;-87
2022/08/22 09:00:58;;;;;;;;;;;;;;;29.08;31.31;99952.69;4995641;28;19936;-85
2022/08/22 09:04:03;;;;;;;;;;;;;;;28.98;31.15;99955.88;4997409;28;20003;-87
2022/08/22 09:06:59;;;;;;;;;;;;;;;28.08;31.97;99939.59;4996836;28;19933;-87
2022/08/22 09:09:30;;;;;;;;;;;;;;;27.86;32.74;99951.03;4995960;28;20380;-87
2022/08/22 09:12:16;;;;;;;;;;;;;;;28.04;32.74;99957.28;4995342;28;19930;-88
2022/08/22 09:15:08;;;;;;;;;;;;;;;28.37;32.23;99954.53;4995222;28;19929;-86
2022/08/22 09:17:45;;;;;;;;;;;;;;;28.72;31.79;99951.44;5011164;28;20028;-86
2022/08/22 09:20:29;;;;;;;;;;;;;;;29.13;31.15;99958.81;5011076;28;19929;-86
2022/08/22 09:23:16;;;;;;;;;;;;;;;29.32;30.68;99960.22;4965202;28;20528;-87
2022/08/22 09:25:50;;;;;;;;;;;;;;;29.62;30.58;99960.78;4978957;28;19933;-88
2022/08/22 09:28:28;;;;;;;;;;;;;;;29.63;30.92;99954.06;5011561;28;20349;-87
2022/08/22 09:31:22;;;;;;;;;;;;;;;30.05;30.80;99950.97;4995185;28;19929;-86
2022/08/22 09:34:18;;;;;;;;;;;;;;;30.47;29.74;99953.41;5055839;28;19935;-87
2022/08/22 09:37:06;;;;;;;;;;;;;;;30.78;29.39;99941.50;5073890;28;20440;-86
2022/08/22 09:39:53;;;;;;;;;;;;;;;31.45;29.05;99952.78;5059182;28;20030;-87
2022/08/22 09:42:43;;;;;;;;;;;;;;;32.44;28.00;99946.97;5076165;28;19970;-88
2022/08/22 09:45:35;;;;;;;;;;;;;;;32.91;27.17;99948.63;5074428;28;19971;-88
2022/08/22 09:48:22;;;;;;;;;;;;;;;32.92;26.72;99950.28;5072536;28;19951;-87
2022/08/22 09:51:00;;;;;;;;;;;;;;;33.32;26.25;99953.75;5073398;28;19928;-87
2022/08/22 09:54:04;;;;;;;;;;;;;;;33.60;26.47;99939.41;5040881;28;20416;-86
2022/08/22 09:56:49;;;;;;;;;;;;;;;33.66;25.85;99944.31;5074110;28;19928;-87
2022/08/22 09:59:39;;;;;;;;;;;;;;;33.93;25.06;99943.44;5090756;28;19928;-88
2022/08/22 10:02:56;;;;;;;;;;;;;;;33.30;24.89;99931.75;5093020;28;19935;-87
2022/08/22 10:05:37;;;;;;;;;;;;;;;33.24;25.33;99938.84;5092527;28;20310;-86
2022/08/22 10:08:32;;;;;;;;;;;;;;;33.44;24.71;99931.16;5074367;28;19929;-86
2022/08/22 10:11:09;;;;;;;;;;;;;;;33.27;25.36;99937.28;5059434;28;20356;-88
2022/08/22 10:13:47;;;;;;;;;;;;;;;33.45;25.45;99941.19;5077177;28;20387;-90
2022/08/22 10:16:32;;;;;;;;;;;;;;;33.54;25.23;99946.50;5057155;28;19939;-87
2022/08/22 10:19:21;;;;;;;;;;;;;;;34.09;24.79;99947.72;5073240;28;19939;-89
2022/08/22 10:21:49;;;;;;;;;;;;;;;34.65;24.09;99934.75;5071504;28;20350;-88
2022/08/22 10:24:22;;;;;;;;;;;;;;;35.04;23.29;99931.50;5074853;28;20003;-88
2022/08/22 10:26:55;;;;;;;;;;;;;;;35.28;23.39;99934.94;5079460;28;19932;-89
2022/08/22 10:29:39;;;;;;;;;;;;;;;35.66;22.82;99935.63;5090419;28;19928;-89
2022/08/22 10:32:09;;;;;;;;;;;;;;;35.41;22.28;99927.00;5089661;28;19932;-89
2022/08/22 10:34:42;;;;;;;;;;;;;;;35.35;22.15;99941.41;5091241;28;20035;-88
2022/08/22 10:40:40;;;;;;;;;;;;;;;35.67;21.34;99932.41;5002525;28;19951;-89
2022/08/22 10:43:27;;;;;;;;;;;;;;;35.63;21.42;99931.59;4996268;28;19951;-93
2022/08/22 10:46:00;;;;;;;;;;;;;;;34.97;22.18;99931.44;5011513;28;19929;-91
2022/08/22 10:48:46;;;;;;;;;;;;;;;35.10;22.15;99930.00;5008927;28;19991;-92
2022/08/22 10:51:22;;;;;;;;;;;;;;;35.17;21.72;99929.22;4984131;28;20486;-91
2022/08/22 10:53:58;;;;;;;;;;;;;;;35.25;21.54;99928.09;4996979;28;19934;-91
2022/08/22 10:56:28;;;;;;;;;;;;;;;35.51;21.78;99920.66;4986806;28;19987;-91
2022/08/22 10:59:04;;;;;;;;;;;;;;;35.90;21.62;99937.72;5002885;28;19929;-90
2022/08/22 11:01:37;;;;;;;;;;;;;;;35.69;21.21;99929.22;4973174;28;19937;-90
2022/08/22 11:04:31;;;;;;;;;;;;;;;36.35;20.77;99929.91;4991403;28;19933;-91
2022/08/22 11:07:04;;;;;;;;;;;;;;;36.59;20.16;99925.59;4969266;28;19930;-90
2022/08/22 11:09:43;;;;;;;;;;;;;;;36.66;19.94;99925.56;4957371;28;20321;-91
2022/08/22 11:12:13;;;;;;;;;;;;;;;36.06;20.46;99926.19;4938344;28;19937;-90
2022/08/22 11:15:14;;;;;;;;;;;;;;;36.45;20.58;99942.38;4953411;28;20692;-90
2022/08/22 11:18:08;;;;;;;;;;;;;;;36.68;20.37;99930.81;4976544;28;20408;-90
2022/08/22 11:20:46;;;;;;;;;;;;;;;37.24;19.52;99925.63;5009168;28;20001;-90
2022/08/22 11:23:22;;;;;;;;;;;;;;;37.19;20.06;99915.56;4975735;28;19929;-88
2022/08/22 11:25:51;;;;;;;;;;;;;;;36.91;19.61;99905.09;4967476;28;19934;-93
2022/08/22 11:28:34;;;;;;;;;;;;;;;35.92;20.34;99914.88;4982507;28;20432;-90
2022/08/22 11:31:02;;;;;;;;;;;;;;;34.98;21.56;99912.63;5000499;28;19933;-91
2022/08/22 11:33:38;;;;;;;;;;;;;;;35.06;21.51;99903.06;4973373;28;20016;-93
2022/08/22 11:36:32;;;;;;;;;;;;;;;35.10;21.21;99923.56;4955389;28;20173;-94
2022/08/22 11:39:02;;;;;;;;;;;;;;;34.95;20.79;99909.41;4984847;28;19998;-91
2022/08/22 11:41:31;;;;;;;;;;;;;;;34.69;20.96;99904.78;4986599;28;19980;-92
2022/08/22 11:44:18;;;;;;;;;;;;;;;34.50;21.43;99902.13;4976684;28;19930;-91
2022/08/22 11:46:47;;;;;;;;;;;;;;;34.00;21.61;99895.94;4987752;28;19972;-92
2022/08/22 11:49:34;;;;;;;;;;;;;;;33.63;21.75;99914.28;4995642;28;19929;-93
2022/08/22 11:52:10;;;;;;;;;;;;;;;33.42;22.02;99913.94;5017068;28;19930;-90
2022/08/22 11:54:45;;;;;;;;;;;;;;;32.97;22.32;99904.44;5059753;28;19935;-92
2022/08/22 11:57:26;;;;;;;;;;;;;;;32.69;23.23;99908.34;5047771;28;19933;-90
2022/08/22 12:00:19;;;;;;;;;;;;;;;32.38;23.60;99896.16;5090751;28;19962;-91
2022/08/22 12:03:06;;;;;;;;;;;;;;;31.88;24.51;99903.53;5094850;28;19967;-90
2022/08/22 12:05:52;;;;;;;;;;;;;;;31.93;24.37;99899.66;5108473;28;20513;-89
2022/08/22 12:08:29;;;;;;;;;;;;;;;31.81;24.59;99902.56;5095725;28;19934;-91
2022/08/22 12:10:59;;;;;;;;;;;;;;;31.60;24.58;99909.31;5093546;28;19949;-90
2022/08/22 12:13:37;;;;;;;;;;;;;;;31.60;24.92;99905.69;5096377;28;20365;-92
2022/08/22 12:16:22;;;;;;;;;;;;;;;31.59;25.05;99901.28;5090450;28;19967;-93
2022/08/22 12:19:18;;;;;;;;;;;;;;;31.44;25.18;99900.97;5050141;28;19974;-93
2022/08/22 12:22:06;;;;;;;;;;;;;;;31.24;25.23;99896.47;5088571;28;19982;-91
2022/08/22 12:25:03;;;;;;;;;;;;;;;31.10;25.38;99891.38;5086350;28;20412;-94
2022/08/22 12:28:38;;;;;;;;;;;;;;;30.87;25.95;99907.94;5008553;28;19928;-95
2022/08/22 12:31:27;;;;;;;;;;;;;;;31.37;25.41;99903.53;4983928;28;20016;-94
2022/08/22 12:34:10;;;;;;;;;;;;;;;31.64;25.21;99904.59;5012975;28;19929;-94
2022/08/22 12:36:49;;;;;;;;;;;;;;;31.35;25.27;99900.34;5000083;28;19929;-93
2022/08/22 12:39:32;;;;;;;;;;;;;;;31.22;25.88;99905.22;5014945;28;19999;-88
2022/08/22 12:42:00;;;;;;;;;;;;;;;31.39;25.85;99906.81;4991472;28;20005;-92
2022/08/22 12:45:00;;;;;;;;;;;;;;;;;;;;;
2022/08/22 12:48:15;;;;;;;;;;;;;;;31.28;26.01;99906.53;5003742;28;20385;-91
2022/08/22 12:50:52;;;;;;;;;;;;;;;31.05;26.29;99894.44;5010790;28;19946;-92
2022/08/22 12:53:26;;;;;;;;;;;;;;;31.21;26.19;99903.59;5059558;28;19927;-92
2022/08/22 12:56:37;;;;;;;;;;;;;;;31.42;25.91;99903.28;5114458;27;19981;-93
2022/08/22 12:59:34;;;;;;;;;;;;;;;31.30;26.55;99900.63;5054783;28;20044;-93
2022/08/22 13:02:17;;;;;;;;;;;;;;;31.03;26.79;99894.00;5090314;28;19978;-95
2022/08/22 13:05:09;;;;;;;;;;;;;;;30.83;27.13;99893.09;5063330;28;19928;-91
2022/08/22 13:07:39;;;;;;;;;;;;;;;30.73;27.44;99885.25;5056557;28;19951;-91
2022/08/22 13:10:15;;;;;;;;;;;;;;;30.56;27.23;99891.97;5070064;28;20271;-92
2022/08/22 13:12:47;;;;;;;;;;;;;;;30.55;27.37;99899.50;5068851;28;20279;-91
2022/08/22 13:15:32;;;;;;;;;;;;;;;30.42;27.27;99897.97;5073623;28;20348;-91
2022/08/22 13:18:07;;;;;;;;;;;;;;;30.18;27.13;99887.72;5055153;28;19939;-91
2022/08/22 13:21:03;;;;;;;;;;;;;;;29.97;27.29;99893.50;5068277;28;20319;-93
2022/08/22 13:23:31;;;;;;;;;;;;;;;29.83;27.30;99896.69;5100841;28;19935;-92
2022/08/22 13:26:37;;;;;;;;;;;;;;;29.68;27.45;99895.44;5077868;28;19932;-88
2022/08/22 13:29:23;;;;;;;;;;;;;;;29.60;27.69;99893.59;5115138;27;20023;-91
2022/08/22 13:32:17;;;;;;;;;;;;;;;29.49;27.69;99892.44;5079249;28;20321;-94
2022/08/22 13:34:55;;;;;;;;;;;;;;;29.38;27.99;99900.44;5104354;28;19934;-92
2022/08/22 13:37:30;;;;;;;;;;;;;;;29.30;28.46;99896.63;5066229;28;19935;-90
2022/08/22 13:40:05;;;;;;;;;;;;;;;29.23;28.29;99904.75;5038100;28;19935;-94
2022/08/22 13:42:37;;;;;;;;;;;;;;;29.05;28.20;99903.34;5092048;28;20028;-93
2022/08/22 13:45:13;;;;;;;;;;;;;;;28.91;28.12;99898.09;5029989;28;19928;-89
2022/08/22 13:47:52;;;;;;;;;;;;;;;28.90;28.28;99899.28;5064175;28;19928;-90
2022/08/22 13:50:28;;;;;;;;;;;;;;;28.93;28.04;99895.78;5024661;28;19928;-92